Time;durP1;ratioP1;P1;durP2;ratioP2;P2;SDS_P1;SDS_P2;PMS_P1;PMS_P2;Temp;Humidity;BMP_temperature;BMP_pressure;BME280_temperature;BME280_humidity;BME280_pressure;Samples;Min_cycle;Max_cycle;Signal;HPM_P1;HPM_P2
2022/06/26 00:01:37;;;;;;;15.35;12.65;;;17.50;99.90;;;;;;4973593;28;20084;-73
2022/06/26 00:04:03;;;;;;;14.05;12.57;;;17.50;99.90;;;;;;4976466;28;20078;-73
2022/06/26 00:06:29;;;;;;;15.55;12.70;;;17.50;99.90;;;;;;4974097;28;20049;-73
2022/06/26 00:08:54;;;;;;;14.93;13.43;;;17.50;99.90;;;;;;4975086;28;20072;-74
2022/06/26 00:11:21;;;;;;;23.75;21.15;;;17.50;99.90;;;;;;4974520;28;20121;-74
2022/06/26 00:13:47;;;;;;;20.20;18.13;;;17.50;99.90;;;;;;4973420;28;20117;-74
2022/06/26 00:16:13;;;;;;;18.73;16.92;;;17.50;99.90;;;;;;4976394;28;20221;-74
2022/06/26 00:18:41;;;;;;;16.70;15.10;;;17.50;99.90;;;;;;4973450;28;20049;-74
2022/06/26 00:21:06;;;;;;;14.45;13.00;;;17.40;99.90;;;;;;4972794;28;20070;-74
2022/06/26 00:23:34;;;;;;;14.18;12.75;;;17.50;99.90;;;;;;4975266;28;20113;-74
2022/06/26 00:26:00;;;;;;;13.27;11.82;;;17.50;99.90;;;;;;4974815;28;20057;-74
2022/06/26 00:28:26;;;;;;;13.40;11.75;;;17.50;99.90;;;;;;4974291;28;20052;-74
2022/06/26 00:30:51;;;;;;;15.40;13.73;;;17.50;99.90;;;;;;4974104;28;20120;-74
2022/06/26 00:33:17;;;;;;;14.30;11.68;;;17.50;99.90;;;;;;4973667;28;20048;-74
2022/06/26 00:35:43;;;;;;;12.98;11.70;;;17.50;99.90;;;;;;4974564;28;20042;-74
2022/06/26 00:38:08;;;;;;;15.48;13.80;;;17.50;99.90;;;;;;4974331;28;20081;-74
2022/06/26 00:40:34;;;;;;;16.10;12.55;;;17.60;99.90;;;;;;4975764;28;20134;-73
2022/06/26 00:43:00;;;;;;;14.23;12.82;;;17.60;99.90;;;;;;4975224;28;20092;-73
2022/06/26 00:45:25;;;;;;;14.48;13.00;;;17.60;99.90;;;;;;4982618;28;20595;-73
2022/06/26 00:47:51;;;;;;;12.82;11.57;;;17.70;99.90;;;;;;4974479;28;20042;-73
2022/06/26 00:50:17;;;;;;;14.65;11.40;;;17.60;99.90;;;;;;4975413;28;20490;-73
2022/06/26 00:52:44;;;;;;;12.50;10.20;;;17.70;99.90;;;;;;4970136;28;20058;-73
2022/06/26 00:55:10;;;;;;;13.90;12.50;;;17.70;99.90;;;;;;4973656;28;20038;-73
2022/06/26 00:57:37;;;;;;;16.55;13.80;;;17.70;99.90;;;;;;4972220;28;20038;-74
2022/06/26 01:00:10;;;;;;;15.68;14.05;;;17.70;99.90;;;;;;4977706;28;20047;-72
2022/06/26 01:02:37;;;;;;;14.90;12.48;;;17.70;99.90;;;;;;4977170;28;20042;-72
2022/06/26 01:05:03;;;;;;;15.35;13.48;;;17.60;99.90;;;;;;4971659;28;20066;-72
2022/06/26 01:07:29;;;;;;;14.73;13.20;;;17.60;99.90;;;;;;4964749;28;20213;-73
2022/06/26 01:09:54;;;;;;;15.23;13.90;;;17.70;99.90;;;;;;4978061;28;20232;-73
2022/06/26 01:12:20;;;;;;;15.57;14.00;;;17.70;99.90;;;;;;4978120;28;20073;-73
2022/06/26 01:14:46;;;;;;;15.35;13.65;;;17.70;99.90;;;;;;4964981;28;20050;-73
2022/06/26 01:17:13;;;;;;;14.80;13.18;;;17.80;99.90;;;;;;4969889;28;20042;-73
2022/06/26 01:19:39;;;;;;;18.25;13.30;;;17.80;99.90;;;;;;4978375;28;20060;-73
2022/06/26 01:22:04;;;;;;;17.63;13.43;;;17.90;99.90;;;;;;4977823;28;20077;-73
2022/06/26 01:24:30;;;;;;;12.77;11.48;;;17.90;99.90;;;;;;4960130;28;20069;-73
2022/06/26 01:26:56;;;;;;;14.05;11.57;;;17.90;99.90;;;;;;4977623;28;20116;-73
2022/06/26 01:29:21;;;;;;;15.98;12.60;;;17.90;99.90;;;;;;4977927;28;20106;-73
2022/06/26 01:31:48;;;;;;;14.40;12.15;;;17.90;99.90;;;;;;4978923;28;20037;-73
2022/06/26 01:34:13;;;;;;;15.68;11.38;;;18.00;99.90;;;;;;4979520;28;20069;-73
2022/06/26 01:36:39;;;;;;;15.38;13.20;;;18.00;99.90;;;;;;4964807;28;20485;-73
2022/06/26 01:39:05;;;;;;;12.57;11.38;;;18.00;99.90;;;;;;4975807;28;20053;-73
2022/06/26 01:41:31;;;;;;;12.88;11.57;;;18.00;99.90;;;;;;4977871;28;20050;-73
2022/06/26 01:43:57;;;;;;;12.90;11.00;;;18.00;99.90;;;;;;4960062;28;20116;-73
2022/06/26 01:46:25;;;;;;;12.52;11.13;;;18.10;99.90;;;;;;4978143;28;20080;-73
2022/06/26 01:48:51;;;;;;;14.23;10.55;;;18.00;99.90;;;;;;4977441;28;20049;-73
2022/06/26 01:51:17;;;;;;;13.48;9.90;;;18.10;99.90;;;;;;4976000;28;20042;-73
2022/06/26 01:53:43;;;;;;;14.90;11.25;;;18.10;99.90;;;;;;4961751;28;20038;-73
2022/06/26 01:56:09;;;;;;;12.77;10.57;;;18.10;99.90;;;;;;4979204;28;20038;-73
2022/06/26 01:58:35;;;;;;;17.35;12.07;;;18.10;99.90;;;;;;4980541;28;20042;-73
2022/06/26 02:01:03;;;;;;;12.75;11.55;;;18.10;99.90;;;;;;4961504;28;20137;-73
2022/06/26 02:03:29;;;;;;;21.27;12.85;;;18.10;99.90;;;;;;4952644;28;20104;-71
2022/06/26 02:05:55;;;;;;;15.13;13.63;;;18.10;99.90;;;;;;4977762;28;20047;-70
2022/06/26 02:08:21;;;;;;;20.00;14.82;;;18.10;99.90;;;;;;4995161;28;20057;-74
2022/06/26 02:13:42;;;;;;;18.33;14.70;;;18.10;99.90;;;;;;4975447;28;20100;-73
2022/06/26 02:16:24;;;;;;;19.80;15.40;;;18.00;99.90;;;;;;4958544;28;20038;-73
2022/06/26 02:18:54;;;;;;;21.23;16.98;;;17.90;99.90;;;;;;4969311;28;20137;-73
2022/06/26 02:21:24;;;;;;;15.45;13.95;;;17.90;99.90;;;;;;4976839;28;20386;-72
2022/06/26 02:23:51;;;;;;;20.35;15.48;;;17.90;99.90;;;;;;4978644;28;20052;-72
2022/06/26 02:26:18;;;;;;;18.17;14.32;;;17.90;99.90;;;;;;4977236;28;20489;-72
2022/06/26 02:28:46;;;;;;;21.98;16.23;;;17.80;99.90;;;;;;4973767;28;20041;-72
2022/06/26 02:31:11;;;;;;;19.98;15.70;;;17.80;99.90;;;;;;4959269;28;20112;-72
2022/06/26 02:33:38;;;;;;;15.48;13.88;;;17.70;99.90;;;;;;4977663;28;20078;-72
2022/06/26 02:36:05;;;;;;;17.27;14.35;;;17.70;99.90;;;;;;4959246;28;20387;-74
2022/06/26 02:38:32;;;;;;;20.13;13.77;;;17.70;99.90;;;;;;4977342;28;20076;-73
2022/06/26 02:40:57;;;;;;;14.38;12.90;;;17.70;99.90;;;;;;4976510;28;20042;-72
2022/06/26 02:43:23;;;;;;;16.05;13.57;;;17.70;99.90;;;;;;4974723;28;20042;-72
2022/06/26 02:45:50;;;;;;;15.93;12.75;;;17.60;99.90;;;;;;4978635;28;20473;-72
2022/06/26 02:48:16;;;;;;;16.52;12.18;;;17.60;99.90;;;;;;4975360;28;20046;-73
2022/06/26 02:50:41;;;;;;;15.98;12.70;;;17.60;99.90;;;;;;4977238;28;20565;-72
2022/06/26 02:53:08;;;;;;;16.23;12.07;;;17.50;99.90;;;;;;4974939;28;20034;-72
2022/06/26 02:55:33;;;;;;;15.88;13.57;;;17.50;99.90;;;;;;4968524;28;20049;-72
2022/06/26 02:57:59;;;;;;;16.88;13.35;;;17.50;99.90;;;;;;4956842;28;20169;-72
2022/06/26 03:00:25;;;;;;;15.73;13.77;;;17.50;99.90;;;;;;4976147;28;20459;-72
2022/06/26 03:02:51;;;;;;;18.27;14.00;;;17.40;99.90;;;;;;4974525;28;20395;-72
2022/06/26 03:05:17;;;;;;;17.15;13.30;;;17.30;99.90;;;;;;4972869;28;20105;-72
2022/06/26 03:07:43;;;;;;;16.83;13.95;;;17.30;99.90;;;;;;4974441;28;20064;-72
2022/06/26 03:10:09;;;;;;;15.57;12.55;;;17.30;99.90;;;;;;4974468;28;20050;-72
2022/06/26 03:12:42;;;;;;;16.65;13.13;;;17.30;99.90;;;;;;4991674;28;20034;-72
2022/06/26 03:15:08;;;;;;;15.13;12.43;;;17.20;99.90;;;;;;4979896;28;20137;-72
2022/06/26 03:17:34;;;;;;;14.10;12.18;;;17.10;99.90;;;;;;4975186;28;20069;-72
2022/06/26 03:19:59;;;;;;;17.17;12.23;;;17.10;99.90;;;;;;4975536;28;20081;-72
2022/06/26 03:22:25;;;;;;;15.02;11.98;;;17.00;99.90;;;;;;4973912;28;20037;-72
2022/06/26 03:24:51;;;;;;;16.83;13.23;;;17.00;99.90;;;;;;4975530;28;20046;-72
2022/06/26 03:27:16;;;;;;;14.25;11.50;;;17.00;99.90;;;;;;4957567;28;20108;-72
2022/06/26 03:29:42;;;;;;;12.43;10.98;;;16.90;99.90;;;;;;4976120;28;20046;-72
2022/06/26 03:32:08;;;;;;;10.20;8.95;;;16.90;99.90;;;;;;4974624;28;20108;-72
2022/06/26 03:34:34;;;;;;;10.48;8.70;;;16.80;99.90;;;;;;4962145;28;20116;-72
2022/06/26 03:36:59;;;;;;;12.63;8.95;;;16.80;99.90;;;;;;4958354;28;20054;-72
2022/06/26 03:39:25;;;;;;;8.57;7.70;;;16.80;99.90;;;;;;4974270;28;20461;-72
2022/06/26 03:42:08;;;;;;;11.20;7.88;;;16.70;99.90;;;;;;4976336;28;20069;-73
2022/06/26 03:44:34;;;;;;;9.82;7.75;;;16.80;99.90;;;;;;4975658;28;20034;-73
2022/06/26 03:47:00;;;;;;;8.65;6.78;;;16.70;99.90;;;;;;4974285;28;20104;-73
2022/06/26 03:49:25;;;;;;;8.77;6.90;;;16.70;99.90;;;;;;4976352;28;20053;-73
2022/06/26 03:51:52;;;;;;;10.43;6.35;;;16.60;99.90;;;;;;4973755;28;20050;-73
2022/06/26 03:54:19;;;;;;;8.20;5.70;;;16.60;99.90;;;;;;4975292;28;20117;-73
2022/06/26 03:56:45;;;;;;;8.32;5.78;;;16.60;99.90;;;;;;4978152;28;20125;-73
2022/06/26 03:59:11;;;;;;;6.07;5.47;;;16.50;99.90;;;;;;4975974;28;20060;-73
2022/06/26 04:01:36;;;;;;;6.47;4.97;;;16.50;99.90;;;;;;4976856;28;20525;-73
2022/06/26 04:04:02;;;;;;;5.95;5.35;;;16.50;99.90;;;;;;4973663;28;20039;-73
2022/06/26 04:06:28;;;;;;;6.90;6.00;;;16.50;99.90;;;;;;4974866;28;20050;-73
2022/06/26 04:08:53;;;;;;;7.90;6.38;;;16.40;99.90;;;;;;4958334;28;20046;-73
2022/06/26 04:11:19;;;;;;;5.13;4.60;;;16.40;99.90;;;;;;4975805;28;20041;-73
2022/06/26 04:13:45;;;;;;;6.32;5.10;;;16.40;99.90;;;;;;4972664;28;20413;-73
2022/06/26 04:16:11;;;;;;;6.60;5.88;;;16.40;99.90;;;;;;4974135;28;20038;-73
2022/06/26 04:18:36;;;;;;;8.32;6.78;;;16.40;99.90;;;;;;4973734;28;20042;-73
2022/06/26 04:21:04;;;;;;;6.75;5.97;;;16.40;99.90;;;;;;4978630;28;20393;-73
2022/06/26 04:23:30;;;;;;;8.30;6.32;;;16.40;99.90;;;;;;4973809;28;20132;-73
2022/06/26 04:25:56;;;;;;;6.70;5.47;;;16.40;99.90;;;;;;4975229;28;20074;-73
2022/06/26 04:28:21;;;;;;;6.43;4.75;;;16.40;99.90;;;;;;4972428;28;20035;-73
2022/06/26 04:30:47;;;;;;;7.95;6.55;;;16.40;99.90;;;;;;4958641;28;20148;-73
2022/06/26 04:33:13;;;;;;;9.02;7.40;;;16.50;99.90;;;;;;4976631;28;20046;-73
2022/06/26 04:35:38;;;;;;;9.30;5.95;;;16.60;99.90;;;;;;4972538;28;20434;-73
2022/06/26 04:38:04;;;;;;;8.05;5.80;;;16.70;99.90;;;;;;4973315;28;20188;-73
2022/06/26 04:40:30;;;;;;;7.32;5.47;;;16.70;99.90;;;;;;4959959;28;20053;-73
2022/06/26 04:42:56;;;;;;;8.00;6.25;;;16.80;99.90;;;;;;4973453;28;20034;-74
2022/06/26 04:45:22;;;;;;;7.82;6.97;;;16.80;99.90;;;;;;4973923;28;20678;-74
2022/06/26 04:47:48;;;;;;;7.13;6.43;;;16.90;99.90;;;;;;4959463;28;20042;-74
2022/06/26 04:50:14;;;;;;;8.15;7.03;;;17.00;99.90;;;;;;4975701;28;20051;-74
2022/06/26 04:52:44;;;;;;;8.50;6.72;;;17.10;99.90;;;;;;4974516;28;20034;-74
2022/06/26 04:55:10;;;;;;;8.90;7.28;;;17.20;99.90;;;;;;4966706;28;20417;-74
2022/06/26 04:57:36;;;;;;;6.72;6.13;;;17.30;99.90;;;;;;4980007;28;20494;-74
2022/06/26 05:00:04;;;;;;;7.43;6.43;;;17.40;99.90;;;;;;4965310;28;20089;-74
2022/06/26 05:02:30;;;;;;;7.10;6.40;;;17.40;99.90;;;;;;4974253;28;20194;-74
2022/06/26 05:04:56;;;;;;;9.00;8.10;;;17.40;99.90;;;;;;4972052;28;20054;-74
2022/06/26 05:07:21;;;;;;;9.38;7.13;;;17.40;99.90;;;;;;4972046;28;20081;-74
2022/06/26 05:09:47;;;;;;;9.77;8.65;;;17.50;99.90;;;;;;4973126;28;20042;-74
2022/06/26 05:12:13;;;;;;;8.10;7.38;;;17.50;99.90;;;;;;4972579;28;20085;-74
2022/06/26 05:14:38;;;;;;;9.45;8.57;;;17.50;99.90;;;;;;4960581;28;20494;-74
2022/06/26 05:17:04;;;;;;;12.88;9.10;;;17.50;99.90;;;;;;4974154;28;20047;-74
2022/06/26 05:19:30;;;;;;;8.13;7.43;;;17.60;99.90;;;;;;4974163;28;20531;-74
2022/06/26 05:21:56;;;;;;;9.73;8.73;;;17.60;99.90;;;;;;4972981;28;20085;-74
2022/06/26 05:24:21;;;;;;;9.25;8.15;;;17.60;99.90;;;;;;4958466;28;20161;-74
2022/06/26 05:26:47;;;;;;;8.60;7.10;;;17.60;99.90;;;;;;4972508;28;20073;-75
2022/06/26 05:29:13;;;;;;;10.40;8.60;;;17.60;99.90;;;;;;4975424;28;20046;-74
2022/06/26 05:31:38;;;;;;;8.68;7.65;;;17.60;99.90;;;;;;4972353;28;20038;-74
2022/06/26 05:34:04;;;;;;;9.45;8.27;;;17.60;99.90;;;;;;4978420;28;20042;-74
2022/06/26 05:36:30;;;;;;;10.65;8.95;;;17.60;99.90;;;;;;4961754;28;20047;-74
2022/06/26 05:38:55;;;;;;;12.05;10.57;;;17.50;99.90;;;;;;4975282;28;20425;-74
2022/06/26 05:41:21;;;;;;;11.45;9.88;;;17.50;99.90;;;;;;4976344;28;20042;-75
2022/06/26 05:43:47;;;;;;;12.65;11.43;;;17.50;99.90;;;;;;4973240;28;20050;-75
2022/06/26 05:46:12;;;;;;;16.95;12.35;;;17.50;99.90;;;;;;4978959;28;20045;-74
2022/06/26 05:48:38;;;;;;;14.60;13.02;;;17.40;99.90;;;;;;4975791;28;20401;-74
2022/06/26 05:51:04;;;;;;;12.90;11.65;;;17.40;99.90;;;;;;4987826;28;20105;-75
2022/06/26 05:53:29;;;;;;;15.80;14.15;;;17.40;99.90;;;;;;4967810;28;20042;-74
2022/06/26 05:55:55;;;;;;;15.55;13.90;;;17.40;99.90;;;;;;4974396;28;20042;-74
2022/06/26 05:58:21;;;;;;;17.50;15.13;;;17.40;99.90;;;;;;4976931;28;20045;-74
2022/06/26 06:00:46;;;;;;;15.25;13.65;;;17.40;99.90;;;;;;4976608;28;20070;-74
2022/06/26 06:03:12;;;;;;;19.10;16.63;;;17.40;99.90;;;;;;4977068;28;20077;-74
2022/06/26 06:05:37;;;;;;;17.80;16.08;;;17.40;99.90;;;;;;4960595;28;20507;-74
2022/06/26 06:08:04;;;;;;;18.60;16.80;;;17.50;99.90;;;;;;4976161;28;20046;-75
2022/06/26 06:10:29;;;;;;;17.88;16.15;;;17.60;99.90;;;;;;4960163;28;20050;-74
2022/06/26 06:12:55;;;;;;;20.02;17.95;;;17.70;99.90;;;;;;4973367;28;20513;-74
2022/06/26 06:15:22;;;;;;;18.05;16.10;;;17.80;99.90;;;;;;4976387;28;20042;-74
2022/06/26 06:17:48;;;;;;;16.95;15.07;;;17.90;99.90;;;;;;4959912;28;20045;-74
2022/06/26 06:20:18;;;;;;;16.73;15.00;;;18.10;99.90;;;;;;4976814;28;20486;-74
2022/06/26 06:23:01;;;;;;;17.10;15.35;;;18.20;99.90;;;;;;4961527;28;20050;-72
2022/06/26 06:25:27;;;;;;;16.07;14.57;;;18.30;99.90;;;;;;4974377;28;20181;-74
2022/06/26 06:27:53;;;;;;;17.17;15.43;;;18.30;99.90;;;;;;4971797;28;20553;-74
2022/06/26 06:30:19;;;;;;;16.20;14.57;;;18.40;99.90;;;;;;4976388;28;20501;-74
2022/06/26 06:32:45;;;;;;;16.80;15.20;;;18.40;99.90;;;;;;4975771;28;20390;-74
2022/06/26 06:35:13;;;;;;;18.52;16.83;;;18.50;99.90;;;;;;4976342;28;20050;-74
2022/06/26 06:37:40;;;;;;;17.45;15.90;;;18.50;99.90;;;;;;4974422;28;20062;-74
2022/06/26 06:40:07;;;;;;;19.67;17.63;;;18.50;99.90;;;;;;4976438;28;20421;-74
2022/06/26 06:42:33;;;;;;;17.17;15.57;;;18.60;99.90;;;;;;4959056;28;20479;-74
2022/06/26 06:44:59;;;;;;;17.95;16.38;;;18.60;99.90;;;;;;4978394;28;20050;-74
2022/06/26 06:47:25;;;;;;;18.02;16.38;;;18.60;99.90;;;;;;4975933;28;20053;-74
2022/06/26 06:49:50;;;;;;;18.02;16.42;;;18.60;99.90;;;;;;4975914;28;20053;-74
2022/06/26 06:52:16;;;;;;;17.40;15.80;;;18.60;99.90;;;;;;4975747;28;20042;-74
2022/06/26 06:54:42;;;;;;;17.92;16.27;;;18.70;99.90;;;;;;4975672;28;20541;-74
2022/06/26 06:57:07;;;;;;;16.90;15.30;;;18.80;99.90;;;;;;4969987;28;20058;-74
2022/06/26 06:59:33;;;;;;;20.98;18.77;;;19.00;99.90;;;;;;4975812;28;20045;-74
2022/06/26 07:01:59;;;;;;;20.17;18.48;;;19.30;99.90;;;;;;4975342;28;20042;-74
2022/06/26 07:04:24;;;;;;;18.92;17.13;;;19.40;99.90;;;;;;4988015;28;20031;-74
2022/06/26 07:06:50;;;;;;;18.02;16.17;;;19.50;99.90;;;;;;4975490;28;20050;-73
2022/06/26 07:09:16;;;;;;;19.85;17.83;;;19.40;99.90;;;;;;4975408;28;20104;-73
2022/06/26 07:11:43;;;;;;;21.13;19.15;;;19.20;99.90;;;;;;4973653;28;20041;-73
2022/06/26 07:14:08;;;;;;;20.45;18.65;;;19.20;99.90;;;;;;4975867;28;20031;-73
2022/06/26 07:16:35;;;;;;;20.92;18.95;;;19.20;99.90;;;;;;4975064;28;20077;-73
2022/06/26 07:19:02;;;;;;;20.92;18.98;;;19.20;99.90;;;;;;4975986;28;20050;-73
2022/06/26 07:21:28;;;;;;;19.45;17.63;;;19.20;99.90;;;;;;4974012;28;20129;-73
2022/06/26 07:23:53;;;;;;;21.88;19.77;;;19.20;99.90;;;;;;4974405;28;20054;-73
2022/06/26 07:26:19;;;;;;;19.70;17.70;;;19.30;99.90;;;;;;4974932;28;20042;-74
2022/06/26 07:28:45;;;;;;;20.92;18.73;;;19.50;99.90;;;;;;4957814;28;20146;-73
2022/06/26 07:31:11;;;;;;;20.17;18.30;;;19.60;99.90;;;;;;4962782;28;20549;-72
2022/06/26 07:36:21;;;;;;;20.17;18.33;;;19.70;99.90;;;;;;4991053;28;20052;-73
2022/06/26 07:38:46;;;;;;;18.45;16.55;;;19.90;99.90;;;;;;4977411;28;20129;-73
2022/06/26 07:41:12;;;;;;;18.25;16.35;;;19.90;99.90;;;;;;4971204;28;20050;-73
2022/06/26 07:43:38;;;;;;;16.17;14.60;;;19.90;99.90;;;;;;4973848;28;20169;-73
2022/06/26 07:46:04;;;;;;;18.88;16.95;;;20.10;99.90;;;;;;4974244;28;20409;-73
2022/06/26 07:48:33;;;;;;;16.58;14.88;;;20.20;99.90;;;;;;4975396;28;20046;-72
2022/06/26 07:50:59;;;;;;;16.00;14.50;;;20.30;99.90;;;;;;4958355;28;20074;-72
2022/06/26 07:53:24;;;;;;;16.02;14.50;;;20.50;99.90;;;;;;4975203;28;20434;-72
2022/06/26 07:55:50;;;;;;;15.13;13.43;;;20.70;99.90;;;;;;4975025;28;20092;-72
2022/06/26 07:58:16;;;;;;;14.95;13.63;;;20.90;99.90;;;;;;4974675;28;20137;-72
2022/06/26 08:00:42;;;;;;;13.48;12.27;;;21.00;99.90;;;;;;4974703;28;20054;-72
2022/06/26 08:03:10;;;;;;;13.38;12.10;;;21.10;99.90;;;;;;4974902;28;20180;-72
2022/06/26 08:05:37;;;;;;;13.27;11.98;;;21.10;99.90;;;;;;4974933;28;20082;-72
2022/06/26 08:08:04;;;;;;;12.45;11.25;;;21.30;99.90;;;;;;4974870;28;20478;-72
2022/06/26 08:10:29;;;;;;;10.77;9.70;;;21.30;99.90;;;;;;4973969;28;20056;-73
2022/06/26 08:12:55;;;;;;;9.95;8.98;;;21.20;99.90;;;;;;4971259;28;20054;-73
2022/06/26 08:15:22;;;;;;;9.27;7.63;;;21.10;99.90;;;;;;4976385;28;20046;-73
2022/06/26 08:17:48;;;;;;;8.90;7.97;;;21.10;99.90;;;;;;4974649;28;20050;-74
2022/06/26 08:20:14;;;;;;;7.90;6.40;;;21.20;99.90;;;;;;4974942;28;20458;-73
2022/06/26 08:22:39;;;;;;;6.50;5.90;;;21.40;99.90;;;;;;4973940;28;20078;-74
2022/06/26 08:25:05;;;;;;;7.85;5.45;;;21.90;99.90;;;;;;4958356;28;20058;-74
2022/06/26 08:27:31;;;;;;;7.10;5.43;;;22.50;99.90;;;;;;4973695;28;20572;-74
2022/06/26 08:29:57;;;;;;;8.00;6.07;;;23.00;99.90;;;;;;4974037;28;20062;-75
2022/06/26 08:32:23;;;;;;;6.80;6.10;;;23.40;99.90;;;;;;4974678;28;20471;-75
2022/06/26 08:34:49;;;;;;;7.95;5.70;;;23.70;99.90;;;;;;4967972;28;20047;-74
2022/06/26 08:37:16;;;;;;;5.75;5.25;;;24.00;99.90;;;;;;4962986;28;20117;-75
2022/06/26 08:39:43;;;;;;;6.72;4.63;;;24.20;99.90;;;;;;4974984;28;20072;-75
2022/06/26 08:42:10;;;;;;;5.65;3.92;;;24.30;99.90;;;;;;4973779;28;20524;-75
2022/06/26 08:44:42;;;;;;;5.80;4.22;;;24.40;99.90;;;;;;4961819;28;20054;-74
2022/06/26 08:47:10;;;;;;;5.28;4.15;;;24.20;99.90;;;;;;4974642;28;20105;-74
2022/06/26 08:49:36;;;;;;;6.00;4.20;;;24.10;99.90;;;;;;4974598;28;20054;-74
2022/06/26 08:52:03;;;;;;;3.42;2.78;;;24.30;99.90;;;;;;4957653;28;20121;-74
2022/06/26 08:54:29;;;;;;;4.03;2.35;;;24.30;99.90;;;;;;4980704;28;20451;-75
2022/06/26 08:56:56;;;;;;;4.53;2.60;;;24.30;99.90;;;;;;4984299;28;20556;-75
2022/06/26 08:59:22;;;;;;;4.10;2.65;;;24.40;99.90;;;;;;4974666;28;20173;-75
2022/06/26 09:01:48;;;;;;;4.65;2.13;;;24.70;99.90;;;;;;4963653;28;20054;-76
2022/06/26 09:04:14;;;;;;;3.88;2.58;;;25.00;99.90;;;;;;4969680;28;20089;-76
2022/06/26 09:06:42;;;;;;;3.38;1.90;;;25.30;99.90;;;;;;4977122;28;20366;-76
2022/06/26 09:09:22;;;;;;;2.88;1.83;;;25.50;99.90;;;;;;4987238;28;20058;-76
2022/06/26 09:11:49;;;;;;;4.70;1.75;;;25.60;97.00;;;;;;4972664;28;20506;-76
2022/06/26 09:14:15;;;;;;;5.43;1.95;;;25.70;99.90;;;;;;4986021;28;20093;-76
2022/06/26 09:16:46;;;;;;;3.38;1.85;;;25.70;99.90;;;;;;4954394;28;20042;-76
2022/06/26 09:19:18;;;;;;;3.83;2.10;;;25.60;99.40;;;;;;4972120;28;20186;-76
2022/06/26 09:21:46;;;;;;;3.50;1.60;;;25.30;96.40;;;;;;4962163;28;20133;-75
2022/06/26 09:24:17;;;;;;;3.45;1.42;;;25.00;96.20;;;;;;4975665;28;20125;-75
2022/06/26 09:26:44;;;;;;;2.65;1.50;;;24.60;94.80;;;;;;4977038;28;20501;-75
2022/06/26 09:29:14;;;;;;;2.10;1.15;;;24.30;93.40;;;;;;4961757;28;20085;-75
2022/06/26 09:31:40;;;;;;;2.25;1.20;;;24.20;95.00;;;;;;4978044;28;20129;-75
2022/06/26 09:34:18;;;;;;;2.50;1.10;;;24.20;94.70;;;;;;4986544;28;20046;-75
2022/06/26 09:36:57;;;;;;;3.08;1.50;;;24.30;94.90;;;;;;4974006;28;20051;-75
2022/06/26 09:39:24;;;;;;;3.00;0.93;;;24.30;94.20;;;;;;4985843;28;21100;-76
2022/06/26 09:41:50;;;;;;;2.72;1.75;;;24.50;94.80;;;;;;4976190;28;20062;-75
2022/06/26 09:44:23;;;;;;;3.72;1.70;;;24.50;93.90;;;;;;4959936;28;20050;-75
2022/06/26 09:46:49;;;;;;;2.23;1.47;;;24.50;93.70;;;;;;4975613;28;20484;-75
2022/06/26 09:49:16;;;;;;;6.00;1.70;;;24.30;92.90;;;;;;4967699;28;20042;-75
2022/06/26 09:51:43;;;;;;;3.40;1.38;;;24.00;93.60;;;;;;4990160;28;20030;-75
2022/06/26 09:54:09;;;;;;;3.42;1.40;;;23.80;94.70;;;;;;4982893;28;20137;-75
2022/06/26 09:56:35;;;;;;;3.45;1.52;;;23.80;94.00;;;;;;4976438;28;20129;-75
2022/06/26 09:59:02;;;;;;;2.40;1.10;;;23.90;95.00;;;;;;4976822;28;20410;-74
2022/06/26 10:07:01;;;;;;;3.45;1.80;;;24.20;93.90;;;;;;4993755;28;20445;-68
2022/06/26 10:09:28;;;;;;;2.97;1.98;;;24.20;94.90;;;;;;4993812;28;20121;-68
2022/06/26 10:11:59;;;;;;;3.65;1.35;;;24.20;93.50;;;;;;4975577;28;20461;-68
2022/06/26 10:14:38;;;;;;;3.35;1.67;;;24.20;92.70;;;;;;4994218;28;20453;-68
2022/06/26 10:18:02;;;;;;;3.58;1.42;;;24.30;92.00;;;;;;4993452;28;20046;-67
2022/06/26 10:20:29;;;;;;;2.30;1.40;;;24.50;93.60;;;;;;4897069;29;20080;-67
2022/06/26 10:22:55;;;;;;;3.97;1.50;;;24.40;92.30;;;;;;4989609;28;20125;-67
2022/06/26 10:25:27;;;;;;;3.42;1.15;;;24.30;90.60;;;;;;4993586;28;20109;-68
2022/06/26 10:27:53;;;;;;;2.65;1.08;;;24.10;90.70;;;;;;4992846;28;20041;-67
2022/06/26 10:30:27;;;;;;;4.47;1.40;;;23.90;89.30;;;;;;4979184;28;20212;-67
2022/06/26 10:33:10;;;;;;;3.00;0.98;;;23.80;89.50;;;;;;4974226;28;20050;-66
2022/06/26 10:35:48;;;;;;;4.35;1.30;;;23.60;88.80;;;;;;4993663;28;20403;-67
2022/06/26 10:38:17;;;;;;;4.65;1.00;;;23.40;90.90;;;;;;4993615;28;20058;-67
2022/06/26 10:43:42;;;;;;;1.88;0.90;;;23.30;91.20;;;;;;4990950;28;20100;-66
2022/06/26 10:46:12;;;;;;;4.03;1.15;;;23.20;90.10;;;;;;4993364;28;20065;-66
2022/06/26 10:48:48;;;;;;;3.58;1.20;;;23.10;91.40;;;;;;4992872;28;20073;-66
2022/06/26 10:51:24;;;;;;;3.22;1.30;;;23.10;91.30;;;;;;4993018;28;20603;-66
2022/06/26 10:53:50;;;;;;;4.50;1.92;;;23.10;90.60;;;;;;4991086;28;20096;-66
2022/06/26 10:56:15;;;;;;;4.82;1.75;;;23.10;92.10;;;;;;4992582;28;20030;-66
2022/06/26 10:58:45;;;;;;;4.22;1.20;;;23.20;92.10;;;;;;4991752;28;20053;-66
2022/06/26 11:01:12;;;;;;;4.75;1.85;;;23.20;91.30;;;;;;4992557;28;20042;-67
2022/06/26 11:03:40;;;;;;;3.85;1.77;;;23.30;91.80;;;;;;4975384;28;20169;-66
2022/06/26 11:06:16;;;;;;;3.35;1.48;;;23.30;92.00;;;;;;4992960;28;20359;-67
2022/06/26 11:08:50;;;;;;;4.38;1.58;;;23.60;93.20;;;;;;4990603;28;20057;-67
2022/06/26 11:11:30;;;;;;;5.22;1.90;;;23.90;93.10;;;;;;4992567;28;20352;-66
2022/06/26 11:14:08;;;;;;;3.92;1.63;;;24.30;92.50;;;;;;4973266;28;20046;-67
2022/06/26 11:16:42;;;;;;;3.22;1.42;;;24.50;91.00;;;;;;4989986;28;20046;-66
2022/06/26 11:19:19;;;;;;;3.30;1.35;;;24.60;90.50;;;;;;4993050;28;20084;-67
2022/06/26 11:21:45;;;;;;;3.58;1.73;;;24.40;90.00;;;;;;4992663;28;20038;-67
2022/06/26 11:24:11;;;;;;;4.85;1.90;;;24.30;90.40;;;;;;4975183;28;20061;-67
2022/06/26 11:26:36;;;;;;;5.00;2.00;;;24.20;90.30;;;;;;4992341;28;20042;-67
2022/06/26 11:29:04;;;;;;;5.47;1.80;;;24.00;90.10;;;;;;4991579;28;20497;-66
2022/06/26 11:31:32;;;;;;;3.83;1.83;;;23.90;90.40;;;;;;4975006;28;20058;-66
2022/06/26 11:34:12;;;;;;;3.85;1.73;;;24.00;91.10;;;;;;4992062;28;20092;-66
2022/06/26 11:36:54;;;;;;;4.38;1.63;;;24.20;90.60;;;;;;4991082;28;20038;-66
2022/06/26 11:39:21;;;;;;;4.10;1.88;;;24.30;90.10;;;;;;4992137;28;20436;-67
2022/06/26 11:41:47;;;;;;;3.22;1.60;;;24.40;89.30;;;;;;4973464;28;20108;-67
2022/06/26 11:44:13;;;;;;;3.90;1.92;;;24.40;90.50;;;;;;4992212;28;20058;-66
2022/06/26 11:46:38;;;;;;;3.15;2.05;;;24.40;89.60;;;;;;4992247;28;20096;-66
2022/06/26 11:49:04;;;;;;;4.38;1.65;;;24.40;90.10;;;;;;4973598;28;20105;-66
2022/06/26 11:51:31;;;;;;;3.53;1.80;;;24.40;91.30;;;;;;4991798;28;20517;-66
2022/06/26 11:53:56;;;;;;;4.72;1.50;;;24.40;91.70;;;;;;4991840;28;20571;-66
2022/06/26 11:56:27;;;;;;;4.22;1.85;;;24.40;90.30;;;;;;4992100;28;20045;-66
2022/06/26 11:58:54;;;;;;;3.63;1.70;;;24.40;89.90;;;;;;4987886;28;20046;-66
2022/06/26 12:01:29;;;;;;;4.80;1.55;;;24.40;90.30;;;;;;4992219;28;20077;-66
2022/06/26 12:03:55;;;;;;;5.80;2.28;;;24.30;89.80;;;;;;4991332;28;20034;-66
2022/06/26 12:06:31;;;;;;;4.88;1.92;;;24.30;90.10;;;;;;4992011;28;20125;-66
2022/06/26 12:09:00;;;;;;;5.32;1.98;;;24.30;90.20;;;;;;4991197;28;20046;-66
2022/06/26 12:11:27;;;;;;;4.32;1.90;;;24.30;91.40;;;;;;4991397;28;20081;-66
2022/06/26 12:13:53;;;;;;;7.82;2.10;;;24.40;90.70;;;;;;4972469;28;20097;-66
2022/06/26 12:16:19;;;;;;;4.68;2.08;;;24.40;90.50;;;;;;4991949;28;20050;-66
2022/06/26 12:18:47;;;;;;;4.22;1.83;;;24.40;89.90;;;;;;4991473;28;20085;-66
2022/06/26 12:21:18;;;;;;;4.15;1.83;;;24.30;88.70;;;;;;4990470;28;20053;-66
2022/06/26 12:23:45;;;;;;;2.80;1.60;;;24.20;88.90;;;;;;4991703;28;20049;-66
2022/06/26 12:26:13;;;;;;;4.10;1.85;;;24.10;89.60;;;;;;4973851;28;20058;-66
2022/06/26 12:28:54;;;;;;;4.45;1.55;;;24.00;90.30;;;;;;4990062;28;20064;-66
2022/06/26 12:31:21;;;;;;;4.60;1.80;;;23.90;90.30;;;;;;4990905;28;20097;-66
2022/06/26 12:33:48;;;;;;;5.32;2.00;;;23.80;90.80;;;;;;4990422;28;20459;-66
2022/06/26 12:36:15;;;;;;;3.72;1.60;;;23.80;91.50;;;;;;4957532;28;20081;-66
2022/06/26 12:38:42;;;;;;;4.75;1.95;;;23.90;91.70;;;;;;4991560;28;20514;-66
2022/06/26 12:41:16;;;;;;;3.30;1.60;;;23.80;91.00;;;;;;4991349;28;20042;-66
2022/06/26 12:43:49;;;;;;;4.32;1.90;;;23.60;90.80;;;;;;4990235;28;20057;-66
2022/06/26 12:46:15;;;;;;;5.27;1.70;;;23.50;90.30;;;;;;4991487;28;20038;-66
2022/06/26 12:48:41;;;;;;;4.03;1.73;;;23.30;90.60;;;;;;4987371;28;20125;-66
2022/06/26 12:51:07;;;;;;;2.72;1.67;;;23.20;91.10;;;;;;4973107;28;20054;-66
2022/06/26 12:53:33;;;;;;;4.03;1.25;;;23.20;91.40;;;;;;4993172;28;20394;-66